Time;durP1;ratioP1;P1;durP2;ratioP2;P2;SDS_P1;SDS_P2;PMS_P1;PMS_P2;Temp;Humidity;BMP_temperature;BMP_pressure;BME280_temperature;BME280_humidity;BME280_pressure;Samples;Min_cycle;Max_cycle;Signal;HPM_P1;HPM_P2
2022/11/09 00:01:40;;;;;;;0.38;0.32;;;7.70;99.90;;;;;;5067227;28;20516;-75
2022/11/09 00:04:09;;;;;;;0.43;0.43;;;7.60;99.90;;;;;;5069348;28;20083;-75
2022/11/09 00:06:37;;;;;;;1.30;0.77;;;7.70;99.90;;;;;;5067690;28;20048;-74
2022/11/09 00:09:08;;;;;;;1.35;0.50;;;7.60;99.90;;;;;;5074857;28;20462;-74
2022/11/09 00:11:37;;;;;;;2.42;0.50;;;7.70;99.90;;;;;;5069605;28;20221;-74
2022/11/09 00:14:06;;;;;;;0.40;0.30;;;7.70;99.90;;;;;;5058189;28;20589;-74
2022/11/09 00:16:34;;;;;;;0.45;0.30;;;7.70;99.90;;;;;;5063988;28;20156;-74
2022/11/09 00:19:01;;;;;;;2.58;0.30;;;7.70;99.90;;;;;;5067888;28;20076;-75
2022/11/09 00:21:28;;;;;;;0.30;0.30;;;7.70;99.90;;;;;;5068798;28;20052;-75
2022/11/09 00:23:57;;;;;;;0.32;0.32;;;7.70;99.90;;;;;;5069697;28;20040;-75
2022/11/09 00:26:25;;;;;;;1.35;0.50;;;7.70;99.90;;;;;;5098804;28;20079;-75
2022/11/09 00:28:53;;;;;;;0.20;0.20;;;7.70;99.90;;;;;;5066723;28;20059;-74
2022/11/09 00:31:24;;;;;;;0.50;0.32;;;7.70;99.90;;;;;;5049842;28;20436;-75
2022/11/09 00:33:54;;;;;;;0.30;0.28;;;7.70;99.90;;;;;;5057271;28;20068;-75
2022/11/09 00:36:23;;;;;;;0.80;0.35;;;7.70;99.90;;;;;;5067159;28;20083;-75
2022/11/09 00:38:52;;;;;;;0.57;0.43;;;7.70;99.90;;;;;;5066725;28;20048;-75
2022/11/09 00:41:21;;;;;;;0.40;0.40;;;7.70;99.90;;;;;;5067032;28;20121;-75
2022/11/09 00:43:49;;;;;;;0.68;0.30;;;7.70;99.90;;;;;;5066969;28;20052;-75
2022/11/09 00:46:16;;;;;;;0.77;0.52;;;7.70;99.90;;;;;;5067608;28;20425;-76
2022/11/09 00:48:46;;;;;;;0.90;0.30;;;7.70;99.90;;;;;;5072544;28;20040;-75
2022/11/09 00:51:13;;;;;;;0.60;0.50;;;7.60;99.90;;;;;;5070161;28;20044;-74
2022/11/09 00:53:42;;;;;;;0.40;0.30;;;7.60;99.90;;;;;;5052549;28;20044;-75
2022/11/09 00:56:12;;;;;;;0.40;0.40;;;7.70;99.90;;;;;;5096100;28;20581;-75
2022/11/09 00:58:41;;;;;;;0.35;0.30;;;7.60;99.90;;;;;;5067251;28;20059;-76
2022/11/09 01:01:11;;;;;;;0.47;0.38;;;7.60;99.90;;;;;;5065749;28;20059;-74
2022/11/09 01:03:39;;;;;;;1.73;0.32;;;7.60;99.90;;;;;;5064758;28;20231;-75
2022/11/09 01:06:14;;;;;;;0.50;0.40;;;7.50;99.90;;;;;;5063749;28;20052;-75
2022/11/09 01:08:44;;;;;;;0.88;0.50;;;7.50;99.90;;;;;;5052849;28;20226;-76
2022/11/09 01:11:12;;;;;;;0.50;0.50;;;7.50;99.90;;;;;;5067391;28;20059;-77
2022/11/09 01:13:40;;;;;;;0.45;0.38;;;7.40;99.90;;;;;;5066612;28;20502;-76
2022/11/09 01:16:10;;;;;;;0.38;0.30;;;7.40;99.90;;;;;;5068000;28;20094;-74
2022/11/09 01:18:39;;;;;;;0.40;0.30;;;7.40;99.90;;;;;;5068536;28;20121;-74
2022/11/09 01:21:12;;;;;;;1.65;0.32;;;7.50;99.90;;;;;;5063459;28;20052;-76
2022/11/09 01:23:42;;;;;;;0.30;0.30;;;7.50;99.90;;;;;;5038507;28;20052;-76
2022/11/09 01:26:14;;;;;;;1.45;0.30;;;7.40;99.90;;;;;;5076044;28;20051;-75
2022/11/09 01:28:44;;;;;;;0.32;0.32;;;7.50;99.90;;;;;;5071702;28;20045;-75
2022/11/09 01:31:14;;;;;;;1.52;0.38;;;7.40;99.90;;;;;;5064059;28;20082;-81
2022/11/09 01:33:43;;;;;;;0.28;0.20;;;7.50;99.90;;;;;;5070410;28;20583;-82
2022/11/09 01:36:14;;;;;;;0.30;0.30;;;7.40;99.90;;;;;;5066397;28;20143;-81
2022/11/09 01:38:42;;;;;;;0.40;0.38;;;7.40;99.90;;;;;;5069848;28;20048;-82
2022/11/09 01:41:14;;;;;;;0.85;0.40;;;7.40;99.90;;;;;;5070409;28;20405;-79
2022/11/09 01:43:41;;;;;;;0.35;0.35;;;7.40;99.90;;;;;;5071727;28;20444;-80
2022/11/09 01:46:19;;;;;;;0.30;0.30;;;7.40;99.90;;;;;;5060924;28;20417;-82
2022/11/09 01:48:50;;;;;;;0.30;0.30;;;7.40;99.90;;;;;;5039220;28;20054;-82
2022/11/09 01:51:27;;;;;;;0.98;0.52;;;7.40;99.90;;;;;;5068935;28;20402;-83
2022/11/09 01:53:59;;;;;;;0.60;0.55;;;7.40;99.90;;;;;;5071619;28;20452;-82
2022/11/09 01:56:27;;;;;;;0.82;0.70;;;7.40;99.90;;;;;;5071389;28;20060;-82
2022/11/09 01:58:59;;;;;;;0.60;0.60;;;7.40;99.90;;;;;;5068617;28;20057;-83
2022/11/09 02:01:30;;;;;;;1.55;0.50;;;7.40;99.90;;;;;;5088057;28;20143;-82
2022/11/09 02:04:06;;;;;;;0.77;0.68;;;7.40;99.90;;;;;;5087977;28;20131;-82
2022/11/09 02:06:36;;;;;;;1.85;0.40;;;7.50;99.90;;;;;;5100694;28;20053;-81
2022/11/09 02:09:12;;;;;;;0.70;0.70;;;7.50;99.90;;;;;;5037741;28;20480;-82
2022/11/09 02:11:40;;;;;;;0.47;0.47;;;7.50;99.90;;;;;;5070743;28;20505;-81
2022/11/09 02:14:08;;;;;;;1.98;0.70;;;7.50;99.90;;;;;;5064281;28;20172;-83
2022/11/09 02:16:37;;;;;;;0.50;0.50;;;7.50;99.90;;;;;;5053642;28;20142;-82
2022/11/09 02:19:04;;;;;;;1.20;0.40;;;7.50;99.90;;;;;;5068753;28;20055;-83
2022/11/09 02:21:33;;;;;;;1.88;0.50;;;7.60;99.90;;;;;;5102552;28;20079;-81
2022/11/09 02:24:01;;;;;;;0.60;0.50;;;7.60;99.90;;;;;;5086918;28;20052;-83
2022/11/09 02:26:33;;;;;;;0.70;0.70;;;7.60;99.90;;;;;;5060569;28;20048;-82
2022/11/09 02:29:07;;;;;;;0.40;0.40;;;7.70;99.90;;;;;;5071075;28;20052;-81
2022/11/09 02:31:38;;;;;;;0.98;0.65;;;7.60;99.90;;;;;;5072042;28;20152;-82
2022/11/09 02:34:11;;;;;;;1.35;0.52;;;7.60;99.90;;;;;;5071804;28;20140;-83
2022/11/09 02:36:42;;;;;;;2.75;0.50;;;7.70;99.90;;;;;;5066593;28;20094;-82
2022/11/09 02:39:16;;;;;;;2.22;0.75;;;7.70;99.90;;;;;;5054727;28;20049;-82
2022/11/09 02:41:49;;;;;;;0.73;0.60;;;7.70;99.90;;;;;;5050278;28;20387;-82
2022/11/09 02:44:19;;;;;;;1.02;0.63;;;7.70;99.90;;;;;;5054927;28;20573;-81
2022/11/09 02:46:47;;;;;;;0.60;0.60;;;7.70;99.90;;;;;;5058238;28;20041;-82
2022/11/09 02:49:15;;;;;;;1.25;1.15;;;7.70;99.90;;;;;;5035366;28;20583;-81
2022/11/09 02:51:44;;;;;;;1.40;1.30;;;7.70;99.90;;;;;;5053152;28;20068;-82
2022/11/09 02:54:11;;;;;;;1.35;0.90;;;7.70;99.90;;;;;;5065059;28;20048;-82
2022/11/09 02:56:39;;;;;;;4.32;1.67;;;7.70;99.90;;;;;;5059091;28;20091;-82
2022/11/09 02:59:07;;;;;;;9.90;2.75;;;7.70;99.90;;;;;;5065642;28;20052;-82
2022/11/09 03:01:34;;;;;;;5.15;2.05;;;7.80;99.90;;;;;;5065165;28;20075;-81
2022/11/09 03:04:02;;;;;;;8.32;2.78;;;7.80;99.90;;;;;;5067236;28;20040;-80
2022/11/09 03:06:34;;;;;;;14.73;3.03;;;7.80;99.90;;;;;;5069758;28;20059;-82
2022/11/09 03:09:08;;;;;;;9.75;1.70;;;7.80;99.90;;;;;;5054398;28;20102;-81
2022/11/09 03:11:37;;;;;;;12.27;2.22;;;7.80;99.90;;;;;;5054143;28;20045;-80
2022/11/09 03:14:06;;;;;;;3.10;1.80;;;7.80;99.90;;;;;;5067909;28;20076;-81
2022/11/09 03:16:35;;;;;;;2.88;1.48;;;7.80;99.90;;;;;;5040082;28;20049;-82
2022/11/09 03:19:06;;;;;;;6.45;1.42;;;7.80;99.90;;;;;;5050350;28;20045;-82
2022/11/09 03:21:35;;;;;;;4.70;1.55;;;7.70;99.90;;;;;;5055009;28;20362;-75
2022/11/09 03:24:05;;;;;;;7.20;2.40;;;7.70;99.90;;;;;;5061199;28;20075;-75
2022/11/09 03:26:33;;;;;;;3.95;1.40;;;7.70;99.90;;;;;;5062301;28;20060;-75
2022/11/09 03:29:00;;;;;;;7.28;3.05;;;7.70;99.90;;;;;;5056968;28;20037;-76
2022/11/09 03:31:29;;;;;;;5.07;1.83;;;7.70;99.90;;;;;;5061615;28;20147;-82
2022/11/09 03:33:58;;;;;;;4.90;2.10;;;7.70;99.90;;;;;;5066645;28;20044;-80
2022/11/09 03:36:26;;;;;;;4.70;1.67;;;7.70;99.90;;;;;;5067685;28;20062;-80
2022/11/09 03:38:53;;;;;;;6.00;1.80;;;7.70;99.90;;;;;;5061597;28;20045;-79
2022/11/09 03:41:22;;;;;;;6.57;1.90;;;7.70;99.90;;;;;;5066580;28;20059;-81
2022/11/09 03:43:49;;;;;;;7.55;2.17;;;7.70;99.90;;;;;;5054127;28;20044;-80
2022/11/09 03:46:17;;;;;;;7.97;2.08;;;7.70;99.90;;;;;;5059190;28;20056;-75
2022/11/09 03:48:44;;;;;;;4.97;1.70;;;7.70;99.90;;;;;;5067595;28;20127;-75
2022/11/09 03:51:11;;;;;;;4.25;1.60;;;7.70;99.90;;;;;;5061716;28;20087;-74
2022/11/09 03:53:38;;;;;;;1.60;1.42;;;7.70;99.90;;;;;;5048154;28;20040;-74
2022/11/09 03:56:07;;;;;;;2.47;1.23;;;7.70;99.90;;;;;;5049945;28;20052;-74
2022/11/09 03:58:35;;;;;;;1.92;1.70;;;7.70;99.90;;;;;;5067764;28;20032;-74
2022/11/09 04:01:03;;;;;;;3.85;1.52;;;7.80;99.90;;;;;;5068196;28;20056;-74
2022/11/09 04:03:30;;;;;;;2.10;1.90;;;7.80;99.90;;;;;;5069472;28;20086;-73
2022/11/09 04:05:58;;;;;;;5.25;1.65;;;7.80;99.90;;;;;;5054053;28;20041;-74
2022/11/09 04:08:26;;;;;;;3.17;2.22;;;7.80;99.90;;;;;;5057645;28;20040;-73
2022/11/09 04:10:53;;;;;;;4.18;2.42;;;7.80;99.90;;;;;;5073302;28;20488;-75
2022/11/09 04:13:21;;;;;;;5.50;2.60;;;7.80;99.90;;;;;;5088355;28;20044;-74
2022/11/09 04:15:49;;;;;;;3.50;2.50;;;7.80;99.90;;;;;;5070066;28;20416;-73
2022/11/09 04:18:17;;;;;;;12.55;5.10;;;7.80;99.90;;;;;;5064919;28;20051;-76
2022/11/09 04:20:46;;;;;;;3.60;2.40;;;7.80;99.90;;;;;;5063205;28;20508;-73
2022/11/09 04:23:14;;;;;;;4.72;2.60;;;7.70;99.90;;;;;;5066206;28;20489;-73
2022/11/09 04:25:42;;;;;;;4.53;3.38;;;7.70;99.90;;;;;;5065324;28;20135;-79
2022/11/09 04:28:19;;;;;;;4.10;3.25;;;7.70;99.90;;;;;;5068110;28;20147;-77
2022/11/09 04:30:46;;;;;;;4.53;3.67;;;7.70;99.90;;;;;;5048565;28;20513;-78
2022/11/09 04:33:15;;;;;;;3.88;3.40;;;7.70;99.90;;;;;;5057187;28;20509;-79
2022/11/09 04:35:43;;;;;;;7.13;4.13;;;7.70;99.90;;;;;;5082284;28;20129;-78
2022/11/09 04:38:13;;;;;;;4.88;3.85;;;7.70;99.90;;;;;;5056731;28;20049;-79
2022/11/09 04:40:41;;;;;;;10.48;5.18;;;7.70;99.90;;;;;;5068124;28;20083;-80
2022/11/09 04:43:14;;;;;;;7.65;4.32;;;7.80;99.90;;;;;;5068909;28;20079;-76
2022/11/09 04:45:43;;;;;;;6.45;4.60;;;7.70;99.90;;;;;;5064688;28;20052;-73
2022/11/09 04:48:12;;;;;;;8.18;5.00;;;7.70;99.90;;;;;;5067386;28;20044;-74
2022/11/09 04:50:40;;;;;;;7.65;5.05;;;7.70;99.90;;;;;;5082584;28;20420;-73
2022/11/09 04:53:10;;;;;;;11.00;5.05;;;7.60;99.90;;;;;;5051363;28;20548;-74
2022/11/09 04:55:39;;;;;;;5.40;4.10;;;7.60;99.90;;;;;;5066547;28;20080;-75
2022/11/09 04:58:07;;;;;;;6.57;4.80;;;7.60;99.90;;;;;;5068891;28;20045;-75
2022/11/09 05:00:36;;;;;;;9.15;4.78;;;7.60;99.90;;;;;;5101069;28;20151;-74
2022/11/09 05:03:06;;;;;;;7.45;4.72;;;7.60;99.90;;;;;;5053456;28;20452;-74
2022/11/09 05:05:34;;;;;;;6.55;4.78;;;7.60;99.90;;;;;;5070971;28;20052;-75
2022/11/09 05:08:04;;;;;;;9.68;4.97;;;7.60;99.90;;;;;;5054415;28;20481;-76
2022/11/09 05:10:33;;;;;;;8.10;4.78;;;7.60;99.90;;;;;;5071607;28;20056;-74
2022/11/09 05:13:01;;;;;;;7.07;4.72;;;7.60;99.90;;;;;;5070348;28;20063;-75
2022/11/09 05:15:29;;;;;;;8.85;5.43;;;7.60;99.90;;;;;;5080475;28;20457;-76
2022/11/09 05:18:16;;;;;;;7.63;4.85;;;7.50;99.90;;;;;;5070903;28;20134;-77
2022/11/09 05:20:43;;;;;;;6.00;4.95;;;7.50;99.90;;;;;;5063434;28;20102;-73
2022/11/09 05:25:57;;;;;;;7.60;4.75;;;7.40;99.90;;;;;;5072393;28;20055;-74
2022/11/09 05:29:17;;;;;;;9.30;4.93;;;7.40;99.90;;;;;;5066268;28;20055;-74
2022/11/09 05:31:46;;;;;;;8.70;5.70;;;7.30;99.90;;;;;;5058710;28;20049;-74
2022/11/09 05:34:14;;;;;;;6.78;5.40;;;7.30;99.90;;;;;;5068597;28;20111;-75
2022/11/09 05:36:41;;;;;;;9.43;5.40;;;7.30;99.90;;;;;;5069683;28;20053;-74
2022/11/09 05:39:14;;;;;;;10.93;5.78;;;7.30;99.90;;;;;;5058142;28;20429;-74
2022/11/09 05:41:41;;;;;;;10.32;6.80;;;7.30;99.90;;;;;;5057689;28;20060;-74
2022/11/09 05:44:09;;;;;;;10.00;5.78;;;7.40;99.90;;;;;;5071651;28;20044;-78
2022/11/09 05:46:36;;;;;;;13.60;6.78;;;7.40;99.90;;;;;;5070583;28;20060;-76
2022/11/09 05:49:04;;;;;;;16.33;7.25;;;7.40;99.90;;;;;;5068033;28;20058;-79
2022/11/09 05:51:31;;;;;;;12.20;6.55;;;7.40;99.90;;;;;;5069783;28;20386;-79
2022/11/09 05:53:59;;;;;;;14.82;7.07;;;7.40;99.90;;;;;;5063978;28;20049;-81
2022/11/09 05:56:29;;;;;;;18.20;7.45;;;7.40;99.90;;;;;;5072041;28;20102;-79
2022/11/09 05:58:56;;;;;;;12.73;7.32;;;7.40;99.90;;;;;;5069333;28;20300;-79
2022/11/09 06:01:24;;;;;;;15.55;7.07;;;7.40;99.90;;;;;;5070214;28;20072;-82
2022/11/09 06:03:54;;;;;;;13.25;6.82;;;7.40;99.90;;;;;;5070343;28;20068;-77
2022/11/09 06:06:21;;;;;;;13.77;7.53;;;7.40;99.90;;;;;;5053092;28;20048;-79
2022/11/09 06:08:49;;;;;;;18.48;8.18;;;7.50;99.90;;;;;;5059230;28;20045;-78
2022/11/09 06:11:17;;;;;;;20.02;7.90;;;7.50;99.90;;;;;;5065987;28;20049;-73
2022/11/09 06:13:46;;;;;;;21.48;8.05;;;7.50;99.90;;;;;;5069389;28;20041;-73
2022/11/09 06:16:13;;;;;;;22.75;8.60;;;7.50;99.90;;;;;;5072202;28;20093;-73
2022/11/09 06:18:41;;;;;;;17.13;7.38;;;7.50;99.90;;;;;;5048042;28;20045;-74
2022/11/09 06:21:09;;;;;;;16.45;6.63;;;7.50;99.90;;;;;;5051894;28;20084;-73
2022/11/09 06:23:37;;;;;;;11.93;7.00;;;7.50;99.90;;;;;;5051112;28;20044;-74
2022/11/09 06:26:08;;;;;;;12.45;7.25;;;7.50;99.90;;;;;;5062974;28;20057;-73
2022/11/09 06:28:36;;;;;;;19.83;8.48;;;7.50;99.90;;;;;;5064588;28;20071;-74
2022/11/09 06:31:07;;;;;;;13.93;6.88;;;7.60;99.90;;;;;;5069118;28;20105;-74
2022/11/09 06:33:36;;;;;;;11.53;7.20;;;7.50;99.90;;;;;;5071021;28;20044;-73
2022/11/09 06:36:04;;;;;;;11.38;6.90;;;7.60;99.90;;;;;;5067995;28;20075;-73
2022/11/09 06:38:32;;;;;;;12.23;7.05;;;7.60;99.90;;;;;;5069743;28;20054;-73
2022/11/09 06:41:00;;;;;;;15.60;7.28;;;7.60;99.90;;;;;;5067881;28;20143;-73
2022/11/09 06:43:28;;;;;;;10.65;7.25;;;7.60;99.90;;;;;;5070974;28;20143;-72
2022/11/09 06:45:56;;;;;;;8.32;6.15;;;7.60;99.90;;;;;;5067398;28;20488;-78
2022/11/09 06:48:25;;;;;;;11.68;7.10;;;7.60;99.90;;;;;;5070649;28;20110;-75
2022/11/09 06:50:52;;;;;;;9.52;7.55;;;7.60;99.90;;;;;;5054467;28;20135;-74
2022/11/09 06:53:20;;;;;;;11.63;6.38;;;7.60;99.90;;;;;;5064931;28;20598;-73
2022/11/09 06:55:47;;;;;;;10.77;8.60;;;7.60;99.90;;;;;;5075237;28;20138;-74
2022/11/09 06:58:15;;;;;;;12.73;9.60;;;7.60;99.90;;;;;;5079313;28;20494;-76
2022/11/09 07:00:43;;;;;;;16.63;10.10;;;7.60;99.90;;;;;;5078001;28;20093;-73
2022/11/09 07:03:16;;;;;;;16.00;10.65;;;7.60;99.90;;;;;;5087059;28;20047;-76
2022/11/09 07:05:46;;;;;;;17.67;11.63;;;7.60;99.90;;;;;;5075662;28;20045;-75
2022/11/09 07:08:14;;;;;;;17.52;12.48;;;7.60;99.90;;;;;;5085046;28;20135;-74
2022/11/09 07:10:42;;;;;;;18.88;11.48;;;7.60;99.90;;;;;;5083884;28;20048;-73
2022/11/09 07:13:10;;;;;;;17.38;12.68;;;7.60;99.90;;;;;;5078414;28;20579;-75
2022/11/09 07:15:39;;;;;;;20.00;11.88;;;7.70;99.90;;;;;;5083174;28;20044;-76
2022/11/09 07:18:10;;;;;;;16.77;10.57;;;7.70;99.90;;;;;;5081499;28;20047;-75
2022/11/09 07:20:38;;;;;;;13.00;9.80;;;7.70;99.90;;;;;;5085104;28;20504;-75
2022/11/09 07:23:07;;;;;;;13.57;9.75;;;7.70;99.90;;;;;;5077115;28;20094;-75
2022/11/09 07:25:34;;;;;;;15.43;8.57;;;7.70;99.90;;;;;;5079243;28;20490;-75
2022/11/09 07:28:06;;;;;;;12.18;8.45;;;7.70;99.90;;;;;;5079260;28;20393;-75
2022/11/09 07:30:35;;;;;;;13.35;9.07;;;7.70;99.90;;;;;;5079887;28;20079;-78
2022/11/09 07:33:03;;;;;;;13.60;9.43;;;7.70;99.90;;;;;;5075760;28;20698;-80
2022/11/09 07:35:30;;;;;;;15.90;9.57;;;7.70;99.90;;;;;;5078537;28;20040;-80
2022/11/09 07:38:00;;;;;;;13.98;9.30;;;7.70;99.90;;;;;;5081893;28;20090;-80
2022/11/09 07:40:30;;;;;;;23.05;11.82;;;7.80;99.90;;;;;;5061305;28;20050;-79
2022/11/09 07:42:59;;;;;;;13.75;8.35;;;7.80;99.90;;;;;;5081872;28;20172;-80
2022/11/09 07:45:27;;;;;;;9.27;8.23;;;7.80;99.90;;;;;;5066761;28;20086;-81
2022/11/09 07:48:01;;;;;;;14.30;8.40;;;7.80;99.90;;;;;;5075862;28;20443;-80
2022/11/09 07:50:31;;;;;;;11.82;7.47;;;7.80;99.90;;;;;;5080607;28;20050;-78
2022/11/09 07:52:59;;;;;;;6.68;5.90;;;7.70;99.90;;;;;;5082761;28;20097;-81
2022/11/09 07:55:30;;;;;;;12.25;6.30;;;7.70;99.90;;;;;;5073461;28;20135;-79
2022/11/09 07:57:58;;;;;;;5.57;4.95;;;7.70;99.90;;;;;;5080403;28;20044;-80
2022/11/09 08:00:25;;;;;;;6.35;5.13;;;7.70;99.90;;;;;;5066278;28;20047;-81
2022/11/09 08:02:53;;;;;;;9.32;4.65;;;7.70;99.90;;;;;;5068315;28;20583;-80
2022/11/09 08:05:21;;;;;;;5.00;4.30;;;7.70;99.90;;;;;;5067465;28;20056;-82
2022/11/09 08:07:48;;;;;;;7.47;5.28;;;7.80;99.90;;;;;;5064783;28;20080;-80
2022/11/09 08:10:16;;;;;;;7.88;4.90;;;7.70;99.90;;;;;;5065407;28;20076;-81
2022/11/09 08:12:46;;;;;;;6.13;5.53;;;7.70;99.90;;;;;;5072529;28;20059;-79
2022/11/09 08:15:14;;;;;;;8.20;5.90;;;7.70;99.90;;;;;;5065195;28;20063;-78
2022/11/09 08:17:41;;;;;;;5.40;4.72;;;7.70;99.90;;;;;;5068768;28;20049;-78
2022/11/09 08:20:09;;;;;;;6.75;4.78;;;7.80;99.90;;;;;;5067949;28;20504;-81
2022/11/09 08:22:41;;;;;;;9.93;5.53;;;7.80;99.90;;;;;;5066189;28;20045;-83
2022/11/09 08:25:10;;;;;;;7.85;5.38;;;7.80;99.90;;;;;;5066034;28;20143;-82
2022/11/09 08:27:40;;;;;;;7.97;5.18;;;7.80;99.90;;;;;;5067035;28;20086;-82
2022/11/09 08:30:13;;;;;;;6.10;5.20;;;7.90;99.90;;;;;;5059932;28;20055;-82
2022/11/09 08:32:42;;;;;;;6.30;5.57;;;7.90;99.90;;;;;;5065414;28;20045;-81
2022/11/09 08:35:13;;;;;;;7.13;6.18;;;7.90;99.90;;;;;;5068241;28;20470;-83
2022/11/09 08:37:41;;;;;;;7.88;6.32;;;7.90;99.90;;;;;;5071228;28;20053;-83
2022/11/09 08:40:09;;;;;;;7.35;6.60;;;7.90;99.90;;;;;;5088021;28;20040;-83
2022/11/09 08:42:37;;;;;;;13.13;8.25;;;7.90;99.90;;;;;;5072401;28;20083;-84
2022/11/09 08:45:06;;;;;;;8.13;7.15;;;7.90;99.90;;;;;;5073579;28;20052;-83
2022/11/09 08:47:35;;;;;;;14.15;8.10;;;7.90;99.90;;;;;;5070081;28;20139;-83
2022/11/09 08:50:04;;;;;;;15.70;8.57;;;8.00;99.90;;;;;;5071621;28;20047;-76
2022/11/09 08:52:32;;;;;;;11.45;8.73;;;7.90;99.90;;;;;;5070929;28;20056;-78
2022/11/09 08:54:59;;;;;;;15.85;9.35;;;7.90;99.90;;;;;;5070822;28;20521;-78
2022/11/09 08:57:27;;;;;;;12.30;9.07;;;7.90;99.90;;;;;;5068517;28;20461;-76
2022/11/09 08:59:54;;;;;;;13.18;9.23;;;8.00;99.90;;;;;;5073139;28;20064;-78
2022/11/09 09:02:22;;;;;;;15.65;10.70;;;8.00;99.90;;;;;;5071504;28;20057;-78
2022/11/09 09:04:51;;;;;;;16.02;10.30;;;8.00;99.90;;;;;;5065913;28;20087;-78
2022/11/09 09:07:18;;;;;;;13.68;10.05;;;8.00;99.90;;;;;;5070541;28;20044;-77
2022/11/09 09:09:46;;;;;;;13.10;10.15;;;8.00;99.90;;;;;;5071431;28;20048;-77
2022/11/09 09:12:13;;;;;;;13.70;9.38;;;8.00;99.90;;;;;;5071828;28;20044;-77
2022/11/09 09:14:40;;;;;;;18.45;11.20;;;8.00;99.90;;;;;;5073032;28;20041;-77
2022/11/09 09:17:08;;;;;;;18.90;10.88;;;8.00;99.90;;;;;;5071717;28;20064;-77
2022/11/09 09:19:35;;;;;;;22.77;12.27;;;8.10;99.90;;;;;;5072881;28;20083;-77
2022/11/09 09:22:04;;;;;;;17.55;11.20;;;8.10;99.90;;;;;;5071026;28;20076;-76
2022/11/09 09:24:32;;;;;;;16.30;11.20;;;8.10;99.90;;;;;;5070190;28;20048;-77
2022/11/09 09:26:59;;;;;;;18.08;11.15;;;8.20;99.90;;;;;;5069286;28;20052;-76
2022/11/09 09:29:26;;;;;;;17.50;10.70;;;8.20;99.90;;;;;;5065527;28;20070;-76
2022/11/09 09:31:54;;;;;;;20.45;11.55;;;8.20;99.90;;;;;;5072364;28;20196;-76
2022/11/09 09:34:21;;;;;;;17.20;10.85;;;8.20;99.90;;;;;;5070414;28;20044;-78
2022/11/09 09:36:49;;;;;;;16.98;10.13;;;8.20;99.90;;;;;;5063477;28;20056;-78
2022/11/09 09:39:18;;;;;;;20.92;11.43;;;8.30;99.90;;;;;;5070226;28;20101;-76
2022/11/09 09:41:52;;;;;;;17.73;10.32;;;8.30;99.90;;;;;;5069334;28;20484;-75
2022/11/09 09:44:29;;;;;;;20.95;11.20;;;8.40;99.90;;;;;;5072199;28;20423;-77
2022/11/09 09:47:09;;;;;;;16.23;11.48;;;8.40;99.90;;;;;;5068836;28;20052;-75
2022/11/09 09:49:41;;;;;;;23.67;11.45;;;8.50;99.90;;;;;;5054017;28;20563;-77
2022/11/09 09:52:18;;;;;;;16.27;11.15;;;8.50;99.90;;;;;;5068642;28;20051;-77
2022/11/09 09:54:58;;;;;;;27.20;11.40;;;8.50;99.90;;;;;;5069738;28;20063;-76
2022/11/09 09:57:27;;;;;;;22.35;12.63;;;8.70;99.90;;;;;;5072374;28;20461;-77
2022/11/09 09:59:59;;;;;;;25.08;11.88;;;8.70;99.90;;;;;;5067281;28;20063;-77
2022/11/09 10:02:29;;;;;;;18.98;10.98;;;8.80;99.90;;;;;;5070023;28;20063;-78
2022/11/09 10:05:00;;;;;;;27.45;12.45;;;8.80;99.90;;;;;;5072133;28;20087;-77
2022/11/09 10:07:34;;;;;;;18.50;11.88;;;8.90;99.90;;;;;;5071167;28;20493;-77
2022/11/09 10:10:19;;;;;;;23.42;12.07;;;8.90;99.90;;;;;;5069125;28;20105;-76
2022/11/09 10:13:20;;;;;;;21.33;11.75;;;8.90;99.90;;;;;;5070119;28;20519;-77
2022/11/09 10:15:56;;;;;;;21.48;11.63;;;9.00;99.90;;;;;;5070075;28;20463;-77
2022/11/09 10:18:39;;;;;;;23.10;11.98;;;9.00;99.90;;;;;;5067433;28;20139;-77
2022/11/09 10:21:21;;;;;;;22.13;11.82;;;9.00;99.90;;;;;;5071224;28;20047;-77
2022/11/09 10:24:06;;;;;;;19.27;11.48;;;9.10;99.90;;;;;;5069799;28;20090;-77
2022/11/09 10:26:44;;;;;;;22.95;12.45;;;9.20;99.90;;;;;;5063650;28;20139;-77
2022/11/09 10:29:25;;;;;;;20.17;12.07;;;9.30;99.90;;;;;;5066729;28;20495;-77
2022/11/09 10:31:55;;;;;;;14.27;11.02;;;9.40;99.90;;;;;;5070003;28;20090;-76
2022/11/09 10:34:30;;;;;;;26.08;12.25;;;9.40;99.90;;;;;;5071784;28;20090;-76
2022/11/09 10:37:04;;;;;;;22.33;11.60;;;9.60;99.90;;;;;;5064860;28;20136;-78
2022/11/09 10:39:41;;;;;;;19.48;10.32;;;9.70;99.90;;;;;;5067357;28;20048;-77
2022/11/09 10:42:31;;;;;;;16.92;10.90;;;9.80;99.90;;;;;;5070589;28;20524;-78
2022/11/09 10:45:30;;;;;;;15.80;10.45;;;9.90;99.90;;;;;;5069398;28;20056;-78
2022/11/09 10:48:32;;;;;;;20.75;10.23;;;10.00;99.90;;;;;;5066894;28;20397;-75
2022/11/09 10:51:35;;;;;;;18.95;10.30;;;10.10;99.90;;;;;;5071134;28;20401;-77
2022/11/09 10:54:27;;;;;;;16.05;10.23;;;10.20;99.90;;;;;;5073792;28;20052;-77
2022/11/09 10:57:18;;;;;;;21.50;10.70;;;10.20;99.90;;;;;;5067428;28;20048;-77
2022/11/09 11:00:16;;;;;;;19.38;10.68;;;10.40;99.90;;;;;;5069199;28;20058;-78
2022/11/09 11:03:15;;;;;;;19.13;10.20;;;10.40;99.90;;;;;;5066805;28;20056;-77
2022/11/09 11:06:06;;;;;;;18.20;10.80;;;10.50;99.90;;;;;;5063409;28;20040;-78
2022/11/09 11:09:14;;;;;;;18.60;11.07;;;10.60;99.90;;;;;;5081264;28;20385;-78
2022/11/09 11:12:15;;;;;;;20.85;11.60;;;10.60;99.90;;;;;;5069333;28;20057;-78
2022/11/09 11:15:01;;;;;;;21.95;11.75;;;10.60;99.90;;;;;;5067409;28;20045;-78
2022/11/09 11:17:49;;;;;;;18.83;10.18;;;10.70;99.90;;;;;;5063328;28;20056;-77
2022/11/09 11:20:37;;;;;;;22.48;10.90;;;10.80;99.90;;;;;;5068299;28;20040;-78
2022/11/09 11:23:25;;;;;;;24.20;12.38;;;10.80;99.90;;;;;;5065959;28;20056;-74
2022/11/09 11:26:35;;;;;;;33.53;16.10;;;11.00;99.90;;;;;;5067703;28;20501;-74
2022/11/09 11:29:37;;;;;;;28.25;15.60;;;11.10;99.90;;;;;;5068950;28;20075;-77
2022/11/09 11:32:24;;;;;;;23.70;13.82;;;11.10;99.90;;;;;;5064129;28;20121;-73
2022/11/09 11:35:17;;;;;;;31.75;16.23;;;11.20;99.90;;;;;;5063554;28;20425;-76
2022/11/09 11:38:20;;;;;;;29.45;14.80;;;11.20;99.90;;;;;;5068119;28;20049;-75
2022/11/09 11:41:35;;;;;;;36.30;15.15;;;11.30;99.90;;;;;;5064706;28;20353;-75
2022/11/09 11:44:39;;;;;;;30.10;14.68;;;11.30;99.90;;;;;;5064170;28;20044;-76
2022/11/09 11:47:35;;;;;;;34.58;15.07;;;11.40;99.90;;;;;;5063393;28;20573;-76
2022/11/09 11:50:47;;;;;;;39.70;14.90;;;11.50;99.90;;;;;;5060666;28;20056;-76
2022/11/09 11:53:55;;;;;;;31.63;13.85;;;11.50;99.90;;;;;;5075707;28;20055;-75
2022/11/09 11:56:47;;;;;;;34.90;13.65;;;11.50;99.90;;;;;;5070923;28;20156;-75
2022/11/09 12:00:10;;;;;;;36.53;13.38;;;11.60;99.90;;;;;;5070667;28;20044;-75
2022/11/09 12:03:34;;;;;;;36.45;12.05;;;11.60;99.90;;;;;;5040711;28;20052;-74
2022/11/09 12:06:45;;;;;;;37.20;11.38;;;11.70;99.90;;;;;;5070768;28;20063;-75
2022/11/09 12:09:58;;;;;;;30.42;10.32;;;11.70;99.90;;;;;;5069899;28;20052;-76
2022/11/09 12:12:56;;;;;;;42.92;12.02;;;11.80;99.90;;;;;;5066150;28;20090;-74
2022/11/09 12:15:54;;;;;;;34.00;12.85;;;11.90;99.90;;;;;;5070844;28;20041;-76
2022/11/09 12:18:53;;;;;;;30.38;11.20;;;11.90;99.90;;;;;;5070566;28;20142;-75
2022/11/09 12:21:51;;;;;;;33.10;12.65;;;11.90;99.90;;;;;;5066452;28;20056;-74
2022/11/09 12:24:46;;;;;;;27.75;10.25;;;11.90;99.90;;;;;;5062954;28;20099;-74
2022/11/09 12:27:52;;;;;;;31.60;11.13;;;11.90;99.90;;;;;;5051282;28;20098;-74
2022/11/09 12:30:55;;;;;;;25.27;10.45;;;11.90;99.90;;;;;;5064615;28;20051;-75
2022/11/09 12:33:49;;;;;;;29.73;10.93;;;12.00;99.90;;;;;;5067000;28;20535;-76
2022/11/09 12:36:42;;;;;;;26.20;10.40;;;12.00;99.90;;;;;;5068752;28;20045;-74
2022/11/09 12:39:36;;;;;;;22.50;10.48;;;11.90;99.90;;;;;;5066467;28;20048;-75
2022/11/09 12:42:29;;;;;;;30.35;11.00;;;11.90;99.90;;;;;;5070042;28;20048;-75
2022/11/09 12:45:23;;;;;;;35.13;10.40;;;11.90;99.90;;;;;;5070802;28;20048;-75
2022/11/09 12:48:22;;;;;;;27.50;10.05;;;11.80;99.90;;;;;;5065855;28;20479;-75
2022/11/09 12:51:09;;;;;;;24.02;10.15;;;11.80;99.90;;;;;;5067051;28;20053;-74
2022/11/09 12:53:57;;;;;;;24.02;9.20;;;11.80;99.90;;;;;;5078874;28;20047;-75
2022/11/09 12:56:53;;;;;;;20.20;7.85;;;11.90;99.90;;;;;;5061104;28;20416;-74
2022/11/09 12:59:48;;;;;;;29.73;9.00;;;11.90;99.90;;;;;;5052207;28;20277;-74
2022/11/09 13:02:42;;;;;;;20.05;9.93;;;12.00;99.90;;;;;;5067273;28;20382;-74
2022/11/09 13:05:31;;;;;;;23.55;9.38;;;11.90;99.90;;;;;;5054378;28;20052;-75
2022/11/09 13:08:25;;;;;;;14.50;8.40;;;11.90;99.90;;;;;;5099837;28;20045;-74
2022/11/09 13:11:21;;;;;;;13.82;7.40;;;11.90;99.90;;;;;;5064007;28;20056;-76
2022/11/09 13:14:33;;;;;;;14.30;8.13;;;11.90;99.90;;;;;;5050209;28;20059;-75
2022/11/09 13:18:05;;;;;;;20.50;8.70;;;11.90;99.90;;;;;;5067164;28;20047;-81
2022/11/09 13:20:52;;;;;;;19.95;8.68;;;11.80;99.90;;;;;;5066776;28;20182;-80
2022/11/09 13:23:40;;;;;;;19.77;7.95;;;11.80;99.90;;;;;;5091596;28;20086;-80
2022/11/09 13:26:56;;;;;;;14.98;9.40;;;11.80;99.90;;;;;;5071640;28;20065;-83
2022/11/09 13:29:52;;;;;;;14.07;7.57;;;11.70;99.90;;;;;;5053508;28;20052;-81
2022/11/09 13:32:38;;;;;;;13.70;8.75;;;11.70;99.90;;;;;;5069056;28;20052;-75